Flint, Michigan
Current Conditions -  °F | °C
As of 11:53 PM on Friday 19 Dec 2014 (Local Time) from KFNT Reporting Station
Clear Clear  
Wind Chill: -7°   Ceiling: Unl
Heat Index: -7°   Visibility: 9mi
Dew Point: -9°   Wind: 3mph
Humidity: 81%   Direction: 190°S
Pressure: 30.28"   Gusts: NA
Location:  43.01°N, 83.68°W
Report Text: KFNT 200453Z AUTO 19003KT 9SM CLR M07/M09 A3028 RMK AO2 SLP265 I1000 T10671094 400061072
Loading
Personal Weather Stations






























Interactive Weather Map New forecast layout! Learn more

10-Day Weather Forecast

Advertisements
Track Severe Weather on mobile